createdAt,value
2017-09-06T00:00:59.345Z,90.90
2017-09-06T00:03:26.937Z,90.90
2017-09-06T00:05:54.720Z,90.90
2017-09-06T00:08:22.319Z,90.90
2017-09-06T00:10:49.913Z,91.00
2017-09-06T00:13:17.766Z,91.10
2017-09-06T00:15:45.342Z,91.10
2017-09-06T00:18:12.910Z,91.10
2017-09-06T00:20:40.546Z,91.10
2017-09-06T00:23:08.132Z,91.10
2017-09-06T00:25:35.717Z,91.20
2017-09-06T00:28:03.343Z,91.10
2017-09-06T00:30:30.915Z,91.10
2017-09-06T00:32:58.510Z,91.10
2017-09-06T00:35:26.148Z,91.10
2017-09-06T00:37:53.719Z,91.00
2017-09-06T00:40:21.321Z,91.00
2017-09-06T00:42:49.049Z,91.00
2017-09-06T00:45:16.641Z,91.20
2017-09-06T00:47:44.218Z,91.10
2017-09-06T00:50:11.948Z,91.10
2017-09-06T00:52:39.547Z,91.20
2017-09-06T00:55:07.141Z,91.20
2017-09-06T00:57:34.765Z,91.40
2017-09-06T01:00:02.365Z,91.10
2017-09-06T01:02:29.967Z,91.10
2017-09-06T01:04:57.582Z,91.10
2017-09-06T01:07:25.162Z,91.10
2017-09-06T01:09:53.508Z,91.30
2017-09-06T01:12:21.359Z,91.20
2017-09-06T01:14:48.944Z,91.40
2017-09-06T01:17:16.537Z,91.30
2017-09-06T01:19:44.172Z,91.40
2017-09-06T01:22:11.765Z,91.40
2017-09-06T01:24:39.353Z,91.40
2017-09-06T01:27:06.971Z,91.50
2017-09-06T01:29:34.578Z,91.60
2017-09-06T01:32:02.161Z,91.50
2017-09-06T01:34:29.893Z,91.70
2017-09-06T01:36:57.500Z,91.70
2017-09-06T01:39:25.095Z,91.80
2017-09-06T01:41:52.723Z,91.90
2017-09-06T01:44:20.319Z,91.80
2017-09-06T01:46:47.904Z,91.90
2017-09-06T01:49:15.563Z,92.00
2017-09-06T01:51:43.142Z,92.00
2017-09-06T01:54:11.490Z,92.00
2017-09-06T01:56:39.230Z,92.00
2017-09-06T01:59:06.810Z,92.00
2017-09-06T02:01:34.413Z,92.00
2017-09-06T02:04:02.044Z,92.10
2017-09-06T02:06:29.628Z,92.10
2017-09-06T02:08:57.978Z,92.10
2017-09-06T02:11:25.741Z,92.00
2017-09-06T02:13:53.324Z,92.00
2017-09-06T02:16:20.909Z,92.00
2017-09-06T02:18:48.547Z,92.00
2017-09-06T02:21:16.157Z,92.00
2017-09-06T02:23:43.737Z,92.20
2017-09-06T02:26:11.370Z,92.20
2017-09-06T02:28:38.961Z,92.20
2017-09-06T02:31:07.313Z,92.30
2017-09-06T02:33:35.712Z,92.30
2017-09-06T02:36:03.304Z,92.20
2017-09-06T02:38:30.896Z,92.30
2017-09-06T02:40:58.533Z,92.20
2017-09-06T02:43:26.139Z,92.10
2017-09-06T02:45:53.743Z,92.00
2017-09-06T02:48:21.476Z,91.90
2017-09-06T02:50:49.064Z,91.90
2017-09-06T02:53:16.678Z,91.80
2017-09-06T02:55:44.325Z,91.90
2017-09-06T02:58:11.909Z,91.90
2017-09-06T03:00:39.496Z,92.00
2017-09-06T03:03:07.227Z,92.00
2017-09-06T03:05:35.594Z,92.20
2017-09-06T03:08:03.945Z,92.20
2017-09-06T03:10:31.589Z,92.20
2017-09-06T03:12:59.159Z,92.20
2017-09-06T03:15:26.731Z,92.20
2017-09-06T03:17:54.354Z,92.20
2017-09-06T03:20:21.962Z,92.30
2017-09-06T03:22:49.583Z,92.30
2017-09-06T03:25:17.332Z,92.30
2017-09-06T03:27:44.934Z,92.40
2017-09-06T03:30:13.289Z,92.40
2017-09-06T03:32:41.027Z,92.40
2017-09-06T03:35:08.622Z,92.80
2017-09-06T03:37:36.203Z,92.40
2017-09-06T03:40:04.518Z,92.40
2017-09-06T03:42:32.389Z,92.50
2017-09-06T03:44:59.999Z,92.50
2017-09-06T03:47:27.628Z,92.70
2017-09-06T03:49:55.229Z,92.70
2017-09-06T03:52:22.803Z,92.70
2017-09-06T03:54:50.561Z,92.70
2017-09-06T03:57:18.142Z,92.90
2017-09-06T03:59:45.732Z,93.00
2017-09-06T04:02:13.396Z,93.00
2017-09-06T04:04:40.975Z,93.00
2017-09-06T04:07:08.571Z,93.00
2017-09-06T04:09:36.637Z,93.00
2017-09-06T04:12:04.249Z,93.10
2017-09-06T04:14:31.857Z,93.10
2017-09-06T04:16:59.504Z,93.10
2017-09-06T04:19:27.096Z,93.10
2017-09-06T04:21:55.693Z,93.00
2017-09-06T04:24:23.336Z,93.00
2017-09-06T04:26:50.934Z,93.00
2017-09-06T04:29:18.526Z,92.90
2017-09-06T04:31:46.169Z,93.10
2017-09-06T04:34:14.690Z,93.10
2017-09-06T04:36:42.263Z,93.00
2017-09-06T04:39:09.881Z,92.80
2017-09-06T04:41:37.459Z,92.70
2017-09-06T04:44:05.030Z,92.70
2017-09-06T04:46:32.805Z,92.60
2017-09-06T04:49:00.497Z,92.70
2017-09-06T04:51:28.092Z,92.70
2017-09-06T04:53:55.738Z,92.70
2017-09-06T04:56:23.334Z,92.70
2017-09-06T04:58:50.937Z,92.70
2017-09-06T05:01:18.651Z,92.70
2017-09-06T05:03:46.252Z,92.70
2017-09-06T05:06:13.843Z,92.70
2017-09-06T05:08:41.479Z,92.70
2017-09-06T05:11:09.069Z,92.60
2017-09-06T05:13:36.656Z,92.50
2017-09-06T05:16:04.295Z,92.60
2017-09-06T05:18:31.867Z,92.70
2017-09-06T05:20:59.461Z,92.60
2017-09-06T05:23:27.104Z,92.60
2017-09-06T05:25:54.683Z,92.60
2017-09-06T05:28:22.292Z,92.70
2017-09-06T05:30:49.929Z,92.70
2017-09-06T05:33:18.302Z,92.60
2017-09-06T05:35:45.900Z,92.50
2017-09-06T05:38:13.680Z,92.60
2017-09-06T05:40:41.269Z,92.60
2017-09-06T05:43:08.865Z,92.50
2017-09-06T05:45:36.511Z,92.60
2017-09-06T05:48:04.467Z,92.40
2017-09-06T05:50:32.048Z,92.30
2017-09-06T05:52:59.677Z,92.30
2017-09-06T05:55:27.273Z,92.10
2017-09-06T05:57:54.874Z,92.20
2017-09-06T06:00:22.533Z,92.30
2017-09-06T06:02:50.130Z,92.30
2017-09-06T06:05:17.741Z,92.40
2017-09-06T06:07:45.394Z,92.30
2017-09-06T06:10:12.992Z,92.30
2017-09-06T06:12:40.581Z,92.20
2017-09-06T06:15:08.207Z,92.30
2017-09-06T06:17:35.789Z,92.30
2017-09-06T06:20:03.376Z,92.20
2017-09-06T06:22:31.021Z,92.20
2017-09-06T06:24:58.604Z,92.10
2017-09-06T06:27:26.185Z,91.90
2017-09-06T06:29:54.573Z,92.00
2017-09-06T06:32:22.166Z,92.00
2017-09-06T06:34:49.758Z,92.00
2017-09-06T06:37:17.397Z,92.00
2017-09-06T06:39:45.732Z,92.00
2017-09-06T06:42:13.421Z,91.90
2017-09-06T06:44:41.044Z,91.90
2017-09-06T06:47:08.629Z,91.80
2017-09-06T06:49:36.204Z,91.90
2017-09-06T06:52:03.819Z,91.50
2017-09-06T06:54:31.400Z,91.40
2017-09-06T06:56:58.990Z,91.20
2017-09-06T06:59:26.617Z,91.00
2017-09-06T07:01:54.236Z,90.90
2017-09-06T07:04:21.814Z,90.70
2017-09-06T07:06:49.456Z,91.10
2017-09-06T07:09:17.049Z,90.70
2017-09-06T07:11:44.633Z,90.70
2017-09-06T07:14:12.265Z,90.50
2017-09-06T07:16:40.598Z,90.40
2017-09-06T07:19:08.194Z,90.30
2017-09-06T07:21:35.810Z,90.30
2017-09-06T07:24:03.391Z,90.20
2017-09-06T07:26:30.973Z,89.80
2017-09-06T07:28:58.616Z,90.20
2017-09-06T07:31:26.205Z,89.50
2017-09-06T07:33:53.775Z,88.50
2017-09-06T07:36:21.399Z,85.50
2017-09-06T07:38:48.980Z,84.60
2017-09-06T07:41:16.576Z,83.90
2017-09-06T07:43:44.232Z,84.00
2017-09-06T07:46:12.594Z,85.70
2017-09-06T07:48:40.185Z,85.70
2017-09-06T07:51:07.834Z,86.00
2017-09-06T07:53:35.434Z,86.50
2017-09-06T07:56:03.003Z,86.60
2017-09-06T07:58:30.828Z,85.50
2017-09-06T08:00:58.411Z,85.00
2017-09-06T08:03:25.988Z,83.10
2017-09-06T08:05:53.764Z,81.10
2017-09-06T08:08:21.366Z,78.80
2017-09-06T08:10:48.938Z,76.10
2017-09-06T08:13:16.582Z,75.90
2017-09-06T08:15:44.182Z,76.10
2017-09-06T08:18:11.779Z,77.30
2017-09-06T08:20:39.512Z,76.50
2017-09-06T08:23:07.116Z,76.30
2017-09-06T08:25:34.689Z,76.80
2017-09-06T08:28:02.411Z,75.90
2017-09-06T08:30:30.169Z,73.70
2017-09-06T08:32:57.738Z,72.80
2017-09-06T08:35:25.518Z,71.10
2017-09-06T08:37:53.095Z,70.00
2017-09-06T08:40:20.677Z,69.10
2017-09-06T08:42:48.399Z,69.00
2017-09-06T08:45:15.980Z,69.00
2017-09-06T08:47:43.662Z,66.30
2017-09-06T08:50:11.375Z,66.00
2017-09-06T08:52:39.741Z,65.90
2017-09-06T08:55:07.347Z,65.90
2017-09-06T08:57:35.725Z,66.60
2017-09-06T09:00:03.295Z,66.50
2017-09-06T09:02:30.949Z,66.10
2017-09-06T09:04:58.577Z,65.70
2017-09-06T09:07:26.915Z,65.20
2017-09-06T09:09:54.507Z,65.20
2017-09-06T09:12:22.142Z,66.10
2017-09-06T09:14:49.730Z,66.80
2017-09-06T09:17:17.315Z,67.40
2017-09-06T09:19:44.949Z,67.80
2017-09-06T09:22:13.305Z,67.80
2017-09-06T09:24:40.877Z,67.80
2017-09-06T09:27:08.505Z,68.40
2017-09-06T09:29:36.856Z,67.30
2017-09-06T09:32:04.420Z,67.30
2017-09-06T09:34:32.064Z,67.20
2017-09-06T09:37:00.430Z,68.80
2017-09-06T09:39:28.795Z,69.40
2017-09-06T09:41:57.190Z,70.50
2017-09-06T09:44:24.784Z,70.50
2017-09-06T09:46:52.399Z,71.50
2017-09-06T09:49:20.985Z,72.40
2017-09-06T09:51:48.550Z,72.10
2017-09-06T09:54:16.135Z,72.90
2017-09-06T09:56:43.776Z,74.30
2017-09-06T09:59:11.352Z,74.80
2017-09-06T10:01:38.936Z,75.60
2017-09-06T10:04:06.576Z,75.60
2017-09-06T10:06:34.160Z,75.80
2017-09-06T10:09:01.740Z,75.30
2017-09-06T10:11:29.394Z,76.30
2017-09-06T10:13:57.032Z,76.10
2017-09-06T10:16:24.630Z,76.20
2017-09-06T10:18:52.277Z,76.90
2017-09-06T10:21:19.868Z,77.80
2017-09-06T10:23:47.443Z,78.70
2017-09-06T10:26:15.073Z,78.70
2017-09-06T10:28:42.658Z,79.00
2017-09-06T10:31:10.259Z,79.50
2017-09-06T10:33:38.774Z,79.90
2017-09-06T10:36:06.365Z,79.90
2017-09-06T10:38:33.996Z,80.30
2017-09-06T10:41:01.648Z,82.30
2017-09-06T10:43:29.242Z,82.90
2017-09-06T10:45:56.823Z,83.50
2017-09-06T10:48:24.462Z,84.50
2017-09-06T10:50:52.802Z,83.40
2017-09-06T10:53:20.384Z,83.50
2017-09-06T10:55:48.026Z,82.70
2017-09-06T10:58:15.598Z,81.60
2017-09-06T11:00:43.408Z,81.40
2017-09-06T11:03:11.062Z,81.40
2017-09-06T11:05:38.660Z,81.70
2017-09-06T11:08:06.266Z,82.10
2017-09-06T11:10:34.840Z,82.10
2017-09-06T11:13:02.419Z,82.60
2017-09-06T11:15:30.001Z,82.10
2017-09-06T11:17:57.796Z,81.80
2017-09-06T11:20:25.363Z,81.60
2017-09-06T11:22:52.944Z,80.90
2017-09-06T11:25:20.581Z,80.40
2017-09-06T11:27:48.151Z,80.50
2017-09-06T11:30:16.510Z,80.70
2017-09-06T11:32:44.908Z,80.50
2017-09-06T11:35:12.485Z,80.40
2017-09-06T11:37:40.059Z,78.50
2017-09-06T11:40:08.465Z,75.20
2017-09-06T11:42:36.052Z,75.10
2017-09-06T11:45:03.625Z,74.60
2017-09-06T11:47:31.401Z,74.60
2017-09-06T11:49:58.988Z,75.00
2017-09-06T11:52:26.581Z,74.60
2017-09-06T11:54:54.295Z,73.80
2017-09-06T11:57:21.890Z,72.90
2017-09-06T11:59:49.498Z,72.60
2017-09-06T12:02:17.119Z,71.90
2017-09-06T12:04:44.713Z,71.80
2017-09-06T12:07:12.292Z,72.10
2017-09-06T12:09:39.921Z,72.00
2017-09-06T12:12:07.561Z,73.70
2017-09-06T12:14:35.153Z,74.00
2017-09-06T12:17:03.119Z,75.90
2017-09-06T12:19:30.846Z,76.80
2017-09-06T12:21:58.456Z,77.60
2017-09-06T12:24:26.111Z,76.10
2017-09-06T12:26:53.691Z,75.30
2017-09-06T12:29:21.290Z,74.30
2017-09-06T12:31:48.915Z,72.50
2017-09-06T12:34:16.482Z,72.90
2017-09-06T12:36:44.078Z,73.00
2017-09-06T12:39:11.844Z,72.30
2017-09-06T12:41:39.411Z,71.30
2017-09-06T12:44:07.006Z,72.70
2017-09-06T12:46:35.555Z,72.20
2017-09-06T12:49:03.167Z,73.10
2017-09-06T12:51:30.762Z,74.40
2017-09-06T12:53:58.424Z,74.90
2017-09-06T12:56:26.036Z,75.70
2017-09-06T12:58:53.616Z,76.00
2017-09-06T13:01:22.130Z,75.80
2017-09-06T13:03:49.711Z,76.10
2017-09-06T13:06:18.119Z,76.80
2017-09-06T13:08:45.770Z,76.80
2017-09-06T13:11:13.371Z,77.30
2017-09-06T13:13:40.978Z,77.40
2017-09-06T13:16:08.601Z,78.00
2017-09-06T13:18:36.898Z,78.30
2017-09-06T13:21:04.485Z,78.30
2017-09-06T13:23:32.118Z,80.00
2017-09-06T13:26:00.524Z,81.70
2017-09-06T13:28:28.113Z,81.50
2017-09-06T13:30:57.443Z,80.60
2017-09-06T13:33:25.143Z,80.50
2017-09-06T13:35:52.754Z,80.70
2017-09-06T13:38:20.367Z,79.60
2017-09-06T13:40:48.130Z,80.00
2017-09-06T13:43:15.698Z,79.90
2017-09-06T13:45:43.338Z,80.70
2017-09-06T13:48:10.933Z,81.10
2017-09-06T13:50:38.530Z,81.50
2017-09-06T13:53:06.161Z,80.90
2017-09-06T13:55:33.734Z,82.00
2017-09-06T13:58:01.410Z,82.10
2017-09-06T14:00:29.259Z,82.40
2017-09-06T14:02:56.838Z,82.70
2017-09-06T14:05:24.692Z,82.40
2017-09-06T14:07:52.320Z,81.90
2017-09-06T14:10:19.911Z,81.80
2017-09-06T14:12:47.489Z,81.60
2017-09-06T14:15:15.131Z,81.80
2017-09-06T14:17:42.725Z,81.70
2017-09-06T14:20:10.313Z,81.80
2017-09-06T14:22:37.945Z,80.70
2017-09-06T14:25:06.286Z,81.60
2017-09-06T14:27:33.973Z,81.60
2017-09-06T14:30:01.834Z,81.90
2017-09-06T14:32:29.417Z,80.90
2017-09-06T14:34:57.001Z,80.60
2017-09-06T14:37:24.638Z,81.00
2017-09-06T14:39:52.980Z,80.30
2017-09-06T14:42:20.569Z,80.20
2017-09-06T14:44:48.193Z,80.30
2017-09-06T14:47:15.895Z,81.30
2017-09-06T14:49:43.468Z,80.60
2017-09-06T14:52:11.212Z,81.40
2017-09-06T14:54:38.796Z,80.70
2017-09-06T14:57:06.384Z,81.40
2017-09-06T14:59:34.002Z,80.80
2017-09-06T15:02:01.587Z,79.60
2017-09-06T15:04:29.168Z,79.00
2017-09-06T15:06:56.811Z,78.60
2017-09-06T15:09:24.617Z,79.30
2017-09-06T15:11:52.219Z,78.40
2017-09-06T15:14:19.839Z,78.20
2017-09-06T15:16:47.441Z,78.90
2017-09-06T15:19:15.016Z,79.30
2017-09-06T15:21:42.780Z,78.40
2017-09-06T15:24:10.359Z,78.80
2017-09-06T15:26:37.979Z,78.80
2017-09-06T15:29:05.618Z,78.90
2017-09-06T15:31:33.200Z,79.10
2017-09-06T15:34:00.793Z,79.30
2017-09-06T15:36:29.202Z,79.30
2017-09-06T15:38:56.794Z,79.30
2017-09-06T15:41:24.591Z,79.90
2017-09-06T15:43:52.258Z,80.10
2017-09-06T15:46:19.878Z,80.30
2017-09-06T15:48:47.480Z,80.90
2017-09-06T15:51:15.091Z,80.20
2017-09-06T15:53:42.681Z,80.90
2017-09-06T15:56:10.267Z,81.10
2017-09-06T15:58:37.986Z,81.40
2017-09-06T16:01:05.577Z,81.40
2017-09-06T16:03:33.159Z,80.90
2017-09-06T16:06:00.802Z,81.00
2017-09-06T16:08:28.393Z,81.20
2017-09-06T16:10:55.966Z,81.30
2017-09-06T16:13:23.689Z,81.60
2017-09-06T16:15:51.398Z,82.40
2017-09-06T16:18:18.994Z,81.60
2017-09-06T16:20:46.802Z,81.60
2017-09-06T16:23:14.406Z,82.10
2017-09-06T16:25:42.794Z,82.70
2017-09-06T16:28:11.014Z,82.60
2017-09-06T16:30:38.617Z,82.40
2017-09-06T16:33:06.266Z,82.90
2017-09-06T16:35:34.022Z,82.90
2017-09-06T16:38:01.622Z,83.10
2017-09-06T16:40:30.001Z,83.20
2017-09-06T16:42:57.636Z,83.20
2017-09-06T16:45:25.214Z,83.80
2017-09-06T16:47:52.786Z,83.10
2017-09-06T16:50:20.436Z,83.40
2017-09-06T16:52:48.037Z,83.40
2017-09-06T16:55:15.654Z,83.20
2017-09-06T16:57:43.275Z,82.50
2017-09-06T17:00:10.851Z,82.20
2017-09-06T17:02:38.452Z,82.40
2017-09-06T17:05:06.113Z,82.40
2017-09-06T17:07:33.708Z,83.20
2017-09-06T17:10:01.287Z,82.70
2017-09-06T17:12:28.928Z,82.60
2017-09-06T17:14:56.531Z,82.80
2017-09-06T17:17:24.128Z,83.10
2017-09-06T17:19:51.766Z,83.30
2017-09-06T17:22:19.352Z,83.70
2017-09-06T17:24:46.946Z,84.20
2017-09-06T17:27:14.743Z,84.20
2017-09-06T17:29:42.333Z,84.70
2017-09-06T17:32:09.906Z,84.90
2017-09-06T17:34:37.663Z,84.70
2017-09-06T17:37:05.291Z,85.00
2017-09-06T17:39:33.008Z,85.20
2017-09-06T17:42:00.755Z,84.80
2017-09-06T17:44:28.374Z,84.40
2017-09-06T17:46:55.998Z,84.60
2017-09-06T17:49:24.060Z,84.40
2017-09-06T17:51:51.864Z,84.20
2017-09-06T17:54:19.611Z,84.50
2017-09-06T17:56:47.286Z,84.50
2017-09-06T17:59:14.950Z,84.80
2017-09-06T18:01:42.554Z,84.70
2017-09-06T18:04:10.296Z,85.60
2017-09-06T18:06:38.046Z,85.90
2017-09-06T18:09:05.821Z,86.00
2017-09-06T18:11:33.479Z,86.00
2017-09-06T18:14:01.909Z,86.00
2017-09-06T18:16:31.885Z,85.90
2017-09-06T18:19:00.352Z,86.10
2017-09-06T18:21:27.936Z,86.00
2017-09-06T18:23:56.301Z,86.40
2017-09-06T18:26:24.285Z,86.40
2017-09-06T18:28:52.075Z,86.50
2017-09-06T18:31:19.695Z,86.50
2017-09-06T18:33:47.839Z,86.50
2017-09-06T18:36:15.462Z,86.50
2017-09-06T18:38:43.079Z,85.90
2017-09-06T18:41:10.830Z,86.00
2017-09-06T18:43:38.428Z,85.80
2017-09-06T18:46:06.013Z,85.70
2017-09-06T18:48:33.687Z,85.60
2017-09-06T18:51:01.262Z,84.70
2017-09-06T18:53:28.959Z,84.40
2017-09-06T18:55:57.462Z,84.80
2017-09-06T18:58:25.048Z,84.10
2017-09-06T19:00:52.730Z,84.30
2017-09-06T19:03:20.378Z,84.40
2017-09-06T19:05:48.745Z,84.10
2017-09-06T19:08:16.552Z,84.10
2017-09-06T19:10:44.714Z,83.90
2017-09-06T19:13:12.322Z,84.00
2017-09-06T19:15:39.957Z,84.40
2017-09-06T19:18:07.675Z,84.00
2017-09-06T19:20:35.297Z,84.20
2017-09-06T19:23:03.043Z,84.60
2017-09-06T19:25:30.996Z,84.30
2017-09-06T19:27:58.624Z,84.60
2017-09-06T19:30:26.288Z,84.30
2017-09-06T19:32:54.049Z,84.80
2017-09-06T19:35:21.649Z,84.80
2017-09-06T19:37:49.413Z,84.80
2017-09-06T19:40:17.135Z,84.20
2017-09-06T19:42:44.800Z,84.00
2017-09-06T19:45:12.435Z,83.90
2017-09-06T19:47:40.163Z,83.90
2017-09-06T19:50:07.758Z,84.00
2017-09-06T19:52:35.345Z,84.00
2017-09-06T19:55:02.963Z,84.40
2017-09-06T19:57:30.545Z,84.70
2017-09-06T19:59:58.141Z,84.30
2017-09-06T20:02:25.903Z,83.90
2017-09-06T20:04:53.484Z,84.20
2017-09-06T20:07:21.069Z,84.20
2017-09-06T20:09:48.708Z,83.90
2017-09-06T20:12:16.298Z,84.20
2017-09-06T20:14:43.890Z,84.30
2017-09-06T20:17:11.536Z,83.80
2017-09-06T20:19:39.125Z,83.70
2017-09-06T20:22:06.698Z,83.90
2017-09-06T20:24:34.341Z,83.40
2017-09-06T20:27:01.912Z,83.40
2017-09-06T20:29:29.548Z,83.30
2017-09-06T20:31:57.271Z,83.10
2017-09-06T20:34:25.607Z,83.40
2017-09-06T20:36:53.192Z,83.30
2017-09-06T20:39:21.128Z,83.40
2017-09-06T20:41:48.718Z,83.20
2017-09-06T20:44:16.285Z,83.40
2017-09-06T20:46:43.936Z,83.50
2017-09-06T20:49:11.557Z,83.30
2017-09-06T20:51:39.121Z,83.50
2017-09-06T20:54:06.766Z,83.50
2017-09-06T20:56:34.368Z,83.10
2017-09-06T20:59:01.939Z,83.80
2017-09-06T21:01:29.741Z,83.60
2017-09-06T21:03:57.310Z,84.10
2017-09-06T21:06:24.895Z,84.60
2017-09-06T21:08:52.675Z,84.50
2017-09-06T21:11:20.261Z,84.90
2017-09-06T21:13:47.849Z,84.80
2017-09-06T21:16:15.501Z,84.50
2017-09-06T21:18:43.088Z,85.00
2017-09-06T21:21:10.677Z,84.60
2017-09-06T21:23:39.084Z,84.60
2017-09-06T21:26:06.664Z,84.60
2017-09-06T21:28:34.238Z,84.80
2017-09-06T21:31:01.987Z,84.60
2017-09-06T21:33:29.578Z,85.20
2017-09-06T21:35:57.169Z,85.00
2017-09-06T21:38:24.782Z,85.30
2017-09-06T21:40:52.364Z,85.30
2017-09-06T21:43:19.935Z,85.50
2017-09-06T21:45:47.574Z,85.70
2017-09-06T21:48:15.167Z,85.60
2017-09-06T21:50:42.909Z,85.80
2017-09-06T21:53:10.548Z,85.80
2017-09-06T21:55:38.129Z,86.00
2017-09-06T21:58:07.206Z,86.60
2017-09-06T22:00:35.630Z,87.30
2017-09-06T22:03:03.203Z,87.10
2017-09-06T22:05:30.784Z,86.80
2017-09-06T22:07:58.410Z,86.90
2017-09-06T22:10:26.760Z,87.60
2017-09-06T22:12:54.339Z,87.60
2017-09-06T22:15:21.978Z,87.50
2017-09-06T22:17:49.575Z,87.60
2017-09-06T22:20:17.174Z,87.50
2017-09-06T22:23:13.547Z,87.00
2017-09-06T22:25:41.902Z,87.20
2017-09-06T22:28:10.257Z,87.50
2017-09-06T22:30:38.659Z,87.00
2017-09-06T22:33:06.245Z,87.10
2017-09-06T22:35:33.837Z,87.30
2017-09-06T22:38:02.267Z,86.90
2017-09-06T22:40:29.844Z,86.90
2017-09-06T22:42:58.068Z,87.00
2017-09-06T22:45:25.846Z,86.60
2017-09-06T22:47:53.456Z,86.40
2017-09-06T22:50:21.048Z,86.20
2017-09-06T22:52:48.726Z,86.80
2017-09-06T22:55:16.322Z,86.30
2017-09-06T22:57:43.915Z,86.60
2017-09-06T23:00:11.690Z,86.60
2017-09-06T23:02:39.276Z,86.50
2017-09-06T23:05:06.846Z,86.80
2017-09-06T23:07:34.481Z,87.00
2017-09-06T23:10:02.077Z,87.20
2017-09-06T23:12:29.669Z,87.40
2017-09-06T23:14:57.288Z,87.80
2017-09-06T23:17:25.640Z,88.20
2017-09-06T23:19:53.992Z,88.10
2017-09-06T23:22:21.625Z,88.10
2017-09-06T23:24:49.334Z,88.70
2017-09-06T23:27:16.924Z,88.30
2017-09-06T23:29:44.575Z,88.80
2017-09-06T23:32:12.929Z,89.70
2017-09-06T23:34:40.506Z,89.10
2017-09-06T23:37:08.269Z,88.80
2017-09-06T23:39:35.857Z,89.00
2017-09-06T23:42:03.436Z,89.20
2017-09-06T23:44:31.839Z,89.70
2017-09-06T23:46:59.424Z,89.60
2017-09-06T23:49:27.013Z,90.00
2017-09-06T23:51:54.872Z,89.80
2017-09-06T23:54:22.459Z,89.40
2017-09-06T23:56:50.904Z,89.80
2017-09-06T23:59:18.641Z,89.20
